Time;durP1;ratioP1;P1;durP2;ratioP2;P2;SDS_P1;SDS_P2;PMS_P1;PMS_P2;Temp;Humidity;BMP_temperature;BMP_pressure;BME280_temperature;BME280_humidity;BME280_pressure;Samples;Min_cycle;Max_cycle;Signal;HPM_P1;HPM_P2
2021/11/02 00:00:55;;;;;;;4.45;2.28;;;6.80;99.90;;;;;;5060490;28;20025;-50
2021/11/02 00:03:21;;;;;;;4.65;2.53;;;6.80;99.90;;;;;;5060106;28;20057;-54
2021/11/02 00:05:46;;;;;;;5.93;2.63;;;6.80;99.90;;;;;;5060551;28;20059;-53
2021/11/02 00:08:12;;;;;;;3.13;2.53;;;6.70;99.90;;;;;;5059917;28;20477;-53
2021/11/02 00:10:38;;;;;;;6.35;2.42;;;6.70;99.90;;;;;;5060206;28;20197;-51
2021/11/02 00:13:04;;;;;;;2.65;2.20;;;6.70;99.90;;;;;;5058950;28;20029;-54
2021/11/02 00:15:32;;;;;;;5.72;2.75;;;6.70;99.90;;;;;;5057044;28;20136;-50
2021/11/02 00:18:05;;;;;;;7.53;2.78;;;6.70;99.90;;;;;;5059441;28;20027;-49
2021/11/02 00:20:32;;;;;;;5.25;2.70;;;6.70;99.90;;;;;;5060384;28;20071;-50
2021/11/02 00:22:58;;;;;;;4.55;2.95;;;6.60;99.90;;;;;;5057542;28;20029;-50
2021/11/02 00:25:26;;;;;;;6.10;2.72;;;6.60;99.90;;;;;;5057675;28;20564;-54
2021/11/02 00:27:53;;;;;;;3.22;2.53;;;6.60;99.90;;;;;;5058764;28;20510;-54
2021/11/02 00:30:20;;;;;;;5.32;2.22;;;6.60;99.90;;;;;;5057855;28;20053;-52
2021/11/02 00:32:48;;;;;;;6.18;2.50;;;6.60;99.90;;;;;;5060369;28;20009;-52
2021/11/02 00:35:15;;;;;;;3.13;2.10;;;6.60;99.90;;;;;;5058565;28;20035;-53
2021/11/02 00:37:42;;;;;;;4.05;2.55;;;6.50;99.90;;;;;;5058888;28;20485;-51
2021/11/02 00:40:09;;;;;;;3.03;2.38;;;6.50;99.90;;;;;;5056899;28;20028;-53
2021/11/02 00:42:40;;;;;;;2.75;2.15;;;6.50;99.90;;;;;;5058854;28;20029;-50
2021/11/02 00:45:09;;;;;;;3.40;2.30;;;6.50;99.90;;;;;;5058775;28;20074;-50
2021/11/02 00:47:35;;;;;;;6.93;2.72;;;6.50;99.90;;;;;;5058123;28;20062;-53
2021/11/02 00:50:07;;;;;;;4.13;2.63;;;6.50;99.90;;;;;;5058585;28;20056;-50
2021/11/02 00:52:33;;;;;;;5.25;3.28;;;6.50;99.90;;;;;;5059227;28;20492;-51
2021/11/02 00:54:58;;;;;;;5.53;2.25;;;6.50;99.90;;;;;;5057755;28;20017;-52
2021/11/02 00:57:24;;;;;;;3.30;2.42;;;6.50;99.90;;;;;;5057957;28;20035;-51
2021/11/02 00:59:50;;;;;;;5.65;2.88;;;6.50;99.90;;;;;;5059573;28;20028;-51
2021/11/02 01:02:18;;;;;;;4.50;2.35;;;6.40;99.90;;;;;;5058792;28;20070;-50
2021/11/02 01:04:45;;;;;;;4.32;2.25;;;6.40;99.90;;;;;;5057005;28;20060;-53
2021/11/02 01:07:11;;;;;;;3.35;2.38;;;6.40;99.90;;;;;;5058026;28;20056;-53
2021/11/02 01:09:36;;;;;;;3.30;2.45;;;6.40;99.90;;;;;;5058189;28;20063;-52
2021/11/02 01:12:02;;;;;;;7.97;2.90;;;6.40;99.90;;;;;;5057465;28;20450;-52
2021/11/02 01:14:28;;;;;;;6.13;2.10;;;6.40;99.90;;;;;;5056968;28;20024;-51
2021/11/02 01:16:54;;;;;;;3.65;2.53;;;6.40;99.90;;;;;;5058394;28;20021;-55
2021/11/02 01:19:20;;;;;;;4.13;2.22;;;6.40;99.90;;;;;;5057849;28;20260;-55
2021/11/02 01:21:45;;;;;;;3.60;2.40;;;6.40;99.90;;;;;;5058115;28;20056;-55
2021/11/02 01:24:11;;;;;;;3.75;2.50;;;6.40;99.90;;;;;;5056703;28;20024;-51
2021/11/02 01:26:37;;;;;;;4.80;2.50;;;6.40;99.90;;;;;;5056306;28;20028;-51
2021/11/02 01:29:02;;;;;;;4.07;2.45;;;6.40;99.90;;;;;;5057476;28;20085;-53
2021/11/02 01:33:56;;;;;;;5.40;2.80;;;6.30;99.90;;;;;;5086499;23;20408;-85
2021/11/02 01:39:06;;;;;;;6.57;3.35;;;6.30;99.90;;;;;;4954848;28;20042;-50
2021/11/02 01:41:33;;;;;;;9.43;2.88;;;6.30;99.90;;;;;;4957383;28;20037;-48
2021/11/02 01:43:59;;;;;;;5.85;2.97;;;6.30;99.90;;;;;;4956965;28;20058;-50
2021/11/02 01:46:30;;;;;;;4.93;2.65;;;6.30;99.90;;;;;;4957396;28;20063;-47
2021/11/02 01:48:57;;;;;;;2.80;2.30;;;6.30;99.90;;;;;;4957451;28;20114;-49
2021/11/02 01:51:25;;;;;;;4.63;2.78;;;6.30;99.90;;;;;;4955831;28;20023;-49
2021/11/02 01:53:51;;;;;;;4.78;2.78;;;6.30;99.90;;;;;;4957515;28;20058;-54
2021/11/02 01:56:18;;;;;;;4.70;2.58;;;6.20;99.90;;;;;;4955838;28;20026;-50
2021/11/02 01:58:47;;;;;;;3.92;2.45;;;6.20;99.90;;;;;;4954283;28;20035;-52
2021/11/02 02:01:49;;;;;;;6.15;3.40;;;6.20;99.90;;;;;;4952749;28;20100;-51
2021/11/02 02:04:41;;;;;;;3.97;2.70;;;6.20;99.90;;;;;;4953696;28;20035;-48
2021/11/02 02:07:45;;;;;;;4.32;2.45;;;6.20;99.90;;;;;;4981734;28;20506;-50
2021/11/02 02:10:36;;;;;;;4.72;2.42;;;6.20;99.90;;;;;;4956490;28;20613;-50
2021/11/02 02:13:15;;;;;;;3.85;2.78;;;6.20;99.90;;;;;;4955184;28;20565;-52
2021/11/02 02:15:47;;;;;;;5.35;2.55;;;6.20;99.90;;;;;;4957091;28;20031;-48
2021/11/02 02:18:20;;;;;;;5.70;2.22;;;6.10;99.90;;;;;;4955865;28;20088;-51
2021/11/02 02:21:04;;;;;;;4.45;2.70;;;6.10;99.90;;;;;;4955980;28;20042;-48
2021/11/02 02:23:51;;;;;;;3.55;2.22;;;6.10;99.90;;;;;;4954645;28;20050;-49
2021/11/02 02:26:35;;;;;;;6.38;2.60;;;6.10;99.90;;;;;;4955683;28;20035;-49
2021/11/02 02:29:03;;;;;;;3.78;2.50;;;6.10;99.90;;;;;;4956402;28;20466;-47
2021/11/02 02:31:34;;;;;;;3.90;2.50;;;6.10;99.90;;;;;;4957883;28;20042;-48
2021/11/02 02:34:01;;;;;;;4.85;2.80;;;6.10;99.90;;;;;;4955597;28;20043;-51
2021/11/02 02:36:29;;;;;;;4.85;3.03;;;6.00;99.90;;;;;;4955267;28;20056;-49
2021/11/02 02:38:58;;;;;;;4.38;2.28;;;6.00;99.90;;;;;;4954739;28;20027;-52
2021/11/02 02:41:25;;;;;;;4.47;3.30;;;6.00;99.90;;;;;;4956823;28;20617;-53
2021/11/02 02:43:52;;;;;;;6.03;2.80;;;5.90;99.90;;;;;;4957468;28;20038;-51
2021/11/02 02:46:19;;;;;;;4.13;1.90;;;5.90;99.90;;;;;;4957476;28;20026;-53
2021/11/02 02:48:46;;;;;;;6.63;3.00;;;5.90;99.90;;;;;;4957062;28;20057;-52
2021/11/02 02:51:13;;;;;;;5.13;2.78;;;5.90;99.90;;;;;;4954000;28;20031;-51
2021/11/02 02:53:44;;;;;;;5.80;3.28;;;5.90;99.90;;;;;;4956591;28;20433;-53
2021/11/02 02:56:11;;;;;;;5.18;2.75;;;5.90;99.90;;;;;;4957483;28;20118;-46
2021/11/02 02:58:41;;;;;;;7.10;3.58;;;5.90;99.90;;;;;;4956680;28;20589;-56
2021/11/02 03:01:09;;;;;;;4.95;3.10;;;5.90;99.90;;;;;;4956564;28;20027;-55
2021/11/02 03:03:36;;;;;;;5.15;2.97;;;5.80;99.90;;;;;;4956804;28;20558;-50
2021/11/02 03:06:03;;;;;;;5.85;3.05;;;5.80;99.90;;;;;;4954558;28;20607;-53
2021/11/02 03:08:29;;;;;;;7.28;3.53;;;5.80;99.90;;;;;;4956827;28;20023;-49
2021/11/02 03:10:55;;;;;;;11.05;3.35;;;5.70;99.90;;;;;;4957760;28;20030;-51
2021/11/02 03:13:24;;;;;;;8.80;3.55;;;5.70;99.90;;;;;;4957752;28;20058;-50
2021/11/02 03:15:58;;;;;;;4.53;2.65;;;5.70;99.90;;;;;;4959796;28;20023;-53
2021/11/02 04:23:52;;;;;;;7.43;3.28;;;5.30;99.90;;;;;;4957953;28;20172;-52
2021/11/02 04:45:31;;;;;;;5.13;2.92;;;5.20;99.90;;;;;;4957763;28;20137;-52
2021/11/02 05:09:51;;;;;;;6.57;3.72;;;5.10;99.90;;;;;;4955798;28;20510;-53
2021/11/02 05:56:06;;;;;;;3.97;3.58;;;5.00;99.90;;;;;;4956284;28;21737;-50
2021/11/02 05:58:47;;;;;;;4.47;4.05;;;4.90;99.90;;;;;;4956279;28;20027;-51
2021/11/02 06:28:26;;;;;;;6.43;3.83;;;5.10;99.90;;;;;;4956069;28;20172;-49
2021/11/02 06:31:11;;;;;;;6.50;3.78;;;5.10;99.90;;;;;;4956419;28;20084;-49
2021/11/02 06:33:52;;;;;;;7.68;4.20;;;5.10;99.90;;;;;;4956802;28;20097;-49
2021/11/02 06:36:37;;;;;;;5.75;3.60;;;5.10;99.90;;;;;;4955516;28;20031;-49
2021/11/02 06:39:37;;;;;;;6.65;4.22;;;5.10;99.90;;;;;;4954408;28;20126;-52
2021/11/02 07:28:08;;;;;;;9.98;4.75;;;5.70;99.90;;;;;;4959175;28;20028;-49
2021/11/02 08:47:01;;;;;;;8.43;5.28;;;6.60;99.90;;;;;;4958034;28;20710;-52
2021/11/02 08:49:06;;;;;;;7.95;4.60;;;6.60;99.90;;;;;;4953805;28;20046;-53
2021/11/02 08:51:32;;;;;;;6.88;5.28;;;6.60;99.90;;;;;;4956616;28;20533;-51
2021/11/02 08:53:58;;;;;;;6.90;5.80;;;6.60;99.90;;;;;;4957941;28;20027;-52
2021/11/02 08:56:24;;;;;;;10.40;5.13;;;6.60;99.90;;;;;;4956192;28;20038;-50
2021/11/02 08:58:52;;;;;;;8.82;5.72;;;6.70;99.90;;;;;;4958656;28;20105;-48
2021/11/02 09:01:21;;;;;;;5.65;5.03;;;6.70;99.90;;;;;;4956450;28;20035;-51
2021/11/02 09:03:52;;;;;;;7.25;5.50;;;6.80;99.90;;;;;;4957935;28;20503;-50
2021/11/02 09:06:24;;;;;;;7.55;5.15;;;6.80;99.90;;;;;;4956680;28;20034;-52
2021/11/02 09:08:54;;;;;;;11.82;5.63;;;6.90;99.90;;;;;;4959054;28;20394;-52
2021/11/02 09:11:25;;;;;;;9.32;6.05;;;7.00;99.90;;;;;;4957062;28;20114;-50
2021/11/02 09:13:52;;;;;;;8.68;5.85;;;7.10;99.90;;;;;;4957966;28;20114;-52
2021/11/02 09:16:20;;;;;;;10.95;5.35;;;7.20;99.90;;;;;;4956074;28;20474;-52
2021/11/02 09:18:50;;;;;;;13.38;6.13;;;7.30;99.90;;;;;;4957314;28;20023;-49
2021/11/02 09:21:21;;;;;;;7.95;5.35;;;7.40;99.90;;;;;;4955366;28;20035;-51
2021/11/02 09:23:48;;;;;;;7.07;4.93;;;7.50;99.90;;;;;;4957044;28;20114;-53
2021/11/02 09:26:16;;;;;;;9.48;5.70;;;7.60;99.90;;;;;;4954002;28;20038;-53
2021/11/02 09:28:44;;;;;;;7.97;5.57;;;7.70;99.90;;;;;;4957612;28;20162;-51
2021/11/02 09:31:10;;;;;;;12.60;5.25;;;7.80;99.90;;;;;;4956355;28;22003;-49
2021/11/02 09:33:36;;;;;;;9.50;5.18;;;7.90;99.90;;;;;;4957584;28;20031;-52
2021/11/02 09:36:04;;;;;;;8.55;4.68;;;8.00;99.90;;;;;;4956814;28;20678;-51
2021/11/02 09:38:53;;;;;;;8.93;5.53;;;8.10;99.90;;;;;;4954674;28;20028;-50
2021/11/02 09:41:45;;;;;;;8.57;5.32;;;8.20;99.90;;;;;;4957030;28;20035;-51
2021/11/02 09:44:48;;;;;;;10.68;5.53;;;8.30;99.90;;;;;;4956898;28;20050;-53
2021/11/02 09:47:35;;;;;;;10.30;5.03;;;8.40;99.90;;;;;;4956168;28;20043;-50
2021/11/02 09:50:25;;;;;;;6.72;4.45;;;8.40;99.90;;;;;;4956666;28;20572;-51
2021/11/02 09:53:15;;;;;;;8.80;5.03;;;8.60;99.90;;;;;;4956648;28;20057;-51
2021/11/02 09:55:59;;;;;;;9.95;6.20;;;8.80;99.90;;;;;;4957031;28;20088;-48
2021/11/02 09:58:32;;;;;;;7.18;4.35;;;8.90;99.90;;;;;;4956090;28;20037;-52
2021/11/02 10:01:07;;;;;;;9.18;4.50;;;8.90;99.90;;;;;;4957967;28;20037;-50
2021/11/02 10:03:37;;;;;;;9.23;5.10;;;9.00;99.90;;;;;;4957515;28;20165;-50
2021/11/02 10:06:31;;;;;;;8.30;4.95;;;9.00;99.90;;;;;;4957680;28;20124;-51
2021/11/02 10:09:08;;;;;;;6.40;5.00;;;9.10;99.90;;;;;;4955592;28;20027;-49
2021/11/02 10:11:52;;;;;;;;;;;9.20;99.90;;;;;;4956519;28;20037;-51
2021/11/02 10:15:01;;;;;;;5.28;4.30;;;9.20;99.90;;;;;;4954514;28;20378;-50
2021/11/02 10:17:29;;;;;;;9.30;4.70;;;9.40;99.90;;;;;;4950260;28;20074;-52
2021/11/02 10:20:17;;;;;;;6.88;4.70;;;9.40;99.90;;;;;;4954830;28;20060;-49
2021/11/02 10:22:55;;;;;;;7.43;4.95;;;9.40;99.90;;;;;;4954719;28;20035;-48
2021/11/02 10:25:48;;;;;;;8.57;4.60;;;9.50;99.90;;;;;;4955000;28;20102;-50
2021/11/02 10:28:32;;;;;;;7.35;4.10;;;9.50;99.90;;;;;;4956025;28;20110;-50
2021/11/02 10:31:10;;;;;;;9.63;3.65;;;9.60;99.90;;;;;;4958312;28;20047;-52
2021/11/02 10:33:38;;;;;;;8.90;3.88;;;9.60;99.90;;;;;;4957161;28;20244;-50
2021/11/02 10:36:17;;;;;;;5.80;3.55;;;9.70;99.90;;;;;;4956495;28;20022;-51
2021/11/02 10:38:57;;;;;;;7.30;4.13;;;9.80;99.90;;;;;;4957221;28;20030;-53
2021/11/02 10:41:33;;;;;;;6.78;4.00;;;10.00;99.90;;;;;;4956639;28;20452;-52
2021/11/02 10:44:19;;;;;;;7.57;4.45;;;10.00;99.90;;;;;;4956681;28;20697;-54
2021/11/02 10:47:00;;;;;;;8.25;4.03;;;10.00;99.90;;;;;;4956911;28;20568;-52
2021/11/02 10:49:35;;;;;;;6.65;3.78;;;10.10;99.90;;;;;;4960701;28;20035;-50
2021/11/02 10:52:05;;;;;;;7.93;4.10;;;10.10;99.90;;;;;;4960903;28;20168;-51
2021/11/02 10:54:54;;;;;;;10.07;4.20;;;10.20;99.90;;;;;;4959607;28;20019;-49
2021/11/02 10:57:58;;;;;;;5.38;3.22;;;10.20;99.90;;;;;;4956704;28;20502;-53
2021/11/02 11:00:24;;;;;;;5.03;3.53;;;10.20;99.90;;;;;;4945145;28;20050;-51
2021/11/02 11:02:54;;;;;;;10.32;4.68;;;10.20;99.90;;;;;;4959269;28;20233;-52
2021/11/02 11:05:24;;;;;;;5.93;4.55;;;10.30;99.90;;;;;;4955044;28;20446;-54
2021/11/02 11:07:52;;;;;;;7.00;3.90;;;10.30;99.90;;;;;;4959638;28;20034;-50
2021/11/02 11:10:17;;;;;;;7.60;4.18;;;10.30;99.90;;;;;;4955864;28;20046;-51
2021/11/02 11:12:55;;;;;;;7.25;4.43;;;10.30;99.90;;;;;;4956260;28;20659;-53
2021/11/02 11:15:25;;;;;;;6.22;4.32;;;10.30;99.90;;;;;;4956004;28;20393;-50
2021/11/02 11:17:55;;;;;;;9.75;4.40;;;10.30;99.90;;;;;;4958116;28;20422;-52
2021/11/02 11:20:22;;;;;;;4.90;4.22;;;10.30;99.90;;;;;;4958425;28;20154;-51
2021/11/02 11:22:50;;;;;;;6.88;3.78;;;10.30;99.90;;;;;;4956003;28;20077;-52
2021/11/02 11:25:20;;;;;;;5.20;3.83;;;10.30;99.90;;;;;;4956082;28;20034;-51
2021/11/02 11:27:47;;;;;;;6.38;4.22;;;10.30;99.90;;;;;;4956432;28;20499;-51
2021/11/02 11:30:14;;;;;;;8.02;4.50;;;10.30;99.90;;;;;;4957256;28;20023;-52
2021/11/02 11:32:41;;;;;;;12.82;4.75;;;10.30;99.90;;;;;;4959527;28;20031;-51
2021/11/02 11:35:09;;;;;;;7.38;4.78;;;10.30;99.90;;;;;;4958762;28;20023;-52
2021/11/02 11:37:40;;;;;;;7.53;4.70;;;10.20;99.90;;;;;;4959967;28;20449;-51
2021/11/02 11:40:06;;;;;;;6.28;5.30;;;10.20;99.90;;;;;;4959050;28;20019;-50
2021/11/02 11:42:33;;;;;;;6.93;4.47;;;10.20;99.90;;;;;;4958966;28;20031;-50
2021/11/02 11:45:10;;;;;;;7.28;4.47;;;10.20;99.90;;;;;;4959897;28;20033;-50
2021/11/02 11:47:36;;;;;;;6.60;4.78;;;10.20;99.90;;;;;;4962681;28;20035;-53
2021/11/02 11:50:20;;;;;;;12.10;5.57;;;10.20;99.90;;;;;;4959993;28;20035;-49
2021/11/02 11:52:52;;;;;;;7.88;5.53;;;10.20;99.90;;;;;;4960444;28;20023;-52
2021/11/02 11:55:24;;;;;;;8.00;4.82;;;10.20;99.90;;;;;;4959245;28;20066;-50
2021/11/02 11:58:17;;;;;;;6.95;5.00;;;10.20;99.90;;;;;;4958179;28;20181;-50
2021/11/02 12:01:14;;;;;;;7.22;5.00;;;10.20;99.90;;;;;;4954276;28;20525;-52
2021/11/02 12:03:59;;;;;;;7.60;5.30;;;10.20;99.90;;;;;;4955906;28;20445;-50
2021/11/02 12:06:54;;;;;;;15.40;6.00;;;10.30;99.90;;;;;;4957665;28;20086;-50
2021/11/02 12:09:22;;;;;;;9.63;6.00;;;10.30;99.90;;;;;;4938273;28;20120;-50
2021/11/02 12:11:49;;;;;;;9.63;5.63;;;10.40;99.90;;;;;;4955396;28;20027;-54
2021/11/02 12:14:27;;;;;;;8.98;5.45;;;10.40;99.90;;;;;;4957647;28;20038;-49
2021/11/02 12:17:01;;;;;;;8.02;5.88;;;10.50;99.90;;;;;;4958566;28;20035;-49
2021/11/02 12:19:36;;;;;;;9.98;5.97;;;10.50;99.90;;;;;;4957563;28;20035;-50
2021/11/02 12:22:04;;;;;;;9.00;5.70;;;10.60;99.90;;;;;;4958283;28;20057;-50
2021/11/02 12:24:32;;;;;;;8.07;5.45;;;10.70;99.90;;;;;;5008982;28;20031;-49
2021/11/02 12:27:17;;;;;;;10.32;5.93;;;10.70;99.90;;;;;;4957202;28;20026;-48
2021/11/02 12:29:50;;;;;;;7.00;5.43;;;10.70;99.90;;;;;;4958010;28;20023;-48
2021/11/02 12:32:18;;;;;;;6.35;4.35;;;10.70;99.90;;;;;;4956388;28;20073;-49
2021/11/02 12:34:51;;;;;;;8.93;6.00;;;10.80;99.90;;;;;;4956953;28;20126;-48
2021/11/02 12:37:17;;;;;;;8.10;5.35;;;10.90;99.90;;;;;;4957590;28;20115;-48
2021/11/02 12:39:45;;;;;;;9.02;4.70;;;10.90;99.90;;;;;;4958351;28;20125;-48
2021/11/02 12:42:11;;;;;;;5.20;4.35;;;10.90;99.90;;;;;;4957492;28;20530;-51
2021/11/02 12:44:38;;;;;;;6.90;4.80;;;11.00;99.90;;;;;;4958622;28;20101;-48
2021/11/02 12:47:10;;;;;;;6.60;4.25;;;11.00;99.90;;;;;;4957690;28;20509;-50
2021/11/02 12:49:54;;;;;;;4.90;3.80;;;11.00;99.90;;;;;;4957652;28;20045;-47
2021/11/02 12:52:25;;;;;;;4.65;4.25;;;10.90;99.90;;;;;;4959060;28;20030;-51
2021/11/02 12:55:09;;;;;;;5.75;4.18;;;10.90;99.90;;;;;;4958038;28;20062;-50
2021/11/02 12:57:44;;;;;;;10.48;5.00;;;10.90;99.90;;;;;;4957532;28;20038;-51
2021/11/02 13:00:16;;;;;;;5.13;4.57;;;10.90;99.90;;;;;;4957611;28;20404;-52
2021/11/02 13:02:43;;;;;;;5.28;4.10;;;10.90;99.90;;;;;;4956525;28;20045;-51
2021/11/02 13:05:24;;;;;;;7.50;4.65;;;11.00;99.90;;;;;;4956381;28;20111;-53
2021/11/02 13:08:04;;;;;;;7.15;4.00;;;11.00;99.90;;;;;;4957969;28;20046;-48
2021/11/02 13:10:31;;;;;;;8.30;4.45;;;11.10;99.90;;;;;;4955868;28;20444;-52
2021/11/02 13:13:06;;;;;;;5.65;4.32;;;11.10;99.90;;;;;;4957815;28;20505;-50
2021/11/02 13:15:32;;;;;;;4.35;3.40;;;11.00;99.90;;;;;;4953635;28;20088;-49
2021/11/02 13:18:00;;;;;;;7.10;4.00;;;11.00;99.90;;;;;;4956616;28;20043;-52
2021/11/02 13:20:33;;;;;;;6.53;3.88;;;11.00;99.90;;;;;;4957308;28;20185;-50
2021/11/02 13:22:59;;;;;;;6.60;3.47;;;11.00;99.90;;;;;;4955306;28;20373;-53
2021/11/02 13:25:39;;;;;;;5.13;3.20;;;11.00;99.90;;;;;;4957288;28;20034;-51
2021/11/02 13:28:05;;;;;;;6.40;3.33;;;10.90;99.90;;;;;;4955258;28;20027;-49
2021/11/02 13:30:41;;;;;;;4.30;3.33;;;11.00;99.90;;;;;;4958125;28;20019;-50
2021/11/02 13:33:08;;;;;;;;;;;11.00;99.90;;;;;;4958018;28;20078;-50
2021/11/02 13:36:01;;;;;;;6.65;3.10;;;11.00;99.90;;;;;;4957984;28;19906;-55
2021/11/02 13:38:36;;;;;;;6.65;4.13;;;11.00;99.90;;;;;;4955051;28;20109;-49
2021/11/02 13:41:19;;;;;;;5.20;3.03;;;11.00;99.90;;;;;;4955053;28;20080;-49
2021/11/02 13:43:49;;;;;;;5.22;3.88;;;11.00;99.90;;;;;;4954752;28;20027;-51
2021/11/02 13:46:19;;;;;;;8.57;3.78;;;11.00;99.90;;;;;;4958019;28;20041;-52
2021/11/02 13:48:45;;;;;;;3.97;3.28;;;11.00;99.90;;;;;;4956043;28;20038;-51
2021/11/02 13:51:13;;;;;;;6.72;3.65;;;11.00;99.90;;;;;;4955867;28;20513;-49
2021/11/02 13:53:40;;;;;;;4.80;3.13;;;10.90;99.90;;;;;;4953852;28;20458;-53
2021/11/02 13:56:11;;;;;;;4.32;3.35;;;10.90;99.90;;;;;;4956508;28;20015;-52
2021/11/02 13:58:38;;;;;;;7.93;3.22;;;10.90;99.90;;;;;;4957870;28;20038;-50
2021/11/02 14:01:06;;;;;;;4.60;3.03;;;10.90;99.90;;;;;;4956394;28;20395;-52
2021/11/02 14:03:47;;;;;;;3.45;3.15;;;10.90;99.90;;;;;;4954375;28;20041;-50
2021/11/02 14:06:18;;;;;;;5.55;3.35;;;10.90;99.90;;;;;;4955508;28;20412;-51
2021/11/02 14:08:46;;;;;;;5.22;3.20;;;10.90;99.90;;;;;;4955243;28;20037;-50
2021/11/02 14:11:23;;;;;;;6.45;3.40;;;10.90;99.90;;;;;;4954134;28;20027;-52
2021/11/02 14:13:49;;;;;;;5.55;3.28;;;10.90;99.90;;;;;;4956702;28;20122;-51
2021/11/02 14:16:29;;;;;;;6.35;3.70;;;10.90;99.90;;;;;;4956217;28;20518;-53
2021/11/02 14:18:55;;;;;;;5.43;3.63;;;10.90;99.90;;;;;;4955906;28;20490;-52
2021/11/02 14:21:51;;;;;;;7.38;3.55;;;11.00;99.90;;;;;;4954727;28;20050;-54
2021/11/02 14:24:31;;;;;;;5.10;3.42;;;10.90;99.90;;;;;;4956305;28;20023;-49
2021/11/02 14:26:58;;;;;;;9.45;3.10;;;10.90;99.90;;;;;;4957380;28;20046;-52
2021/11/02 14:29:47;;;;;;;4.70;2.80;;;10.90;99.90;;;;;;4955775;28;20076;-51
2021/11/02 14:32:46;;;;;;;6.32;2.83;;;10.80;99.90;;;;;;4954503;28;20036;-49
2021/11/02 14:35:12;;;;;;;6.90;3.40;;;10.80;99.90;;;;;;4941497;28;20031;-50
2021/11/02 14:37:49;;;;;;;3.70;3.00;;;10.70;99.90;;;;;;4955588;28;20031;-50
2021/11/02 14:40:32;;;;;;;3.10;2.80;;;10.70;99.90;;;;;;4954445;28;20495;-49
2021/11/02 14:43:19;;;;;;;5.47;2.83;;;10.60;99.90;;;;;;4955119;28;20035;-51
2021/11/02 14:45:53;;;;;;;4.78;3.20;;;10.60;99.90;;;;;;4955864;28;20019;-49
2021/11/02 14:48:25;;;;;;;7.70;3.47;;;10.50;99.90;;;;;;4956436;28;20094;-50
2021/11/02 14:51:05;;;;;;;16.95;11.02;;;10.50;99.90;;;;;;4954304;28;20031;-51
2021/11/02 14:53:37;;;;;;;18.38;12.65;;;10.50;99.90;;;;;;4954732;28;20062;-50
2021/11/02 14:56:27;;;;;;;22.98;15.30;;;10.50;99.90;;;;;;4955876;28;20439;-52
2021/11/02 14:58:54;;;;;;;10.70;8.43;;;10.40;99.90;;;;;;4969989;28;20515;-49
2021/11/02 15:01:19;;;;;;;24.02;13.95;;;10.50;99.90;;;;;;4955921;28;20407;-50
2021/11/02 15:03:53;;;;;;;10.93;7.72;;;10.40;99.90;;;;;;4954971;28;20093;-51
2021/11/02 15:06:19;;;;;;;11.77;7.90;;;10.40;99.90;;;;;;4959084;28;20035;-52
2021/11/02 15:08:47;;;;;;;26.73;21.80;;;10.40;99.90;;;;;;4958839;28;20031;-50
2021/11/02 15:11:16;;;;;;;25.58;20.40;;;10.40;99.90;;;;;;4956838;28;20077;-50
2021/11/02 15:14:03;;;;;;;10.40;8.57;;;10.30;99.90;;;;;;4959528;28;20487;-51
2021/11/02 15:16:28;;;;;;;7.15;5.85;;;10.30;99.90;;;;;;4958392;28;20026;-52
2021/11/02 15:19:01;;;;;;;5.63;5.13;;;10.20;99.90;;;;;;4955776;28;20027;-52
2021/11/02 15:21:31;;;;;;;4.32;3.83;;;10.20;99.90;;;;;;4959798;28;20042;-51
2021/11/02 15:24:05;;;;;;;4.45;3.33;;;10.10;99.90;;;;;;4958992;28;20030;-50
2021/11/02 15:26:40;;;;;;;2.85;2.58;;;10.00;99.90;;;;;;4958833;28;20530;-51
2021/11/02 15:29:06;;;;;;;4.75;3.17;;;9.90;99.90;;;;;;4956894;28;20023;-50
2021/11/02 15:31:31;;;;;;;4.60;2.35;;;9.80;99.90;;;;;;4958914;28;20039;-51
2021/11/02 15:34:13;;;;;;;2.17;1.73;;;9.80;99.90;;;;;;4959115;28;20367;-50
2021/11/02 15:36:39;;;;;;;2.28;1.38;;;9.60;99.90;;;;;;4958265;28;20058;-51
2021/11/02 15:39:08;;;;;;;2.05;1.50;;;9.60;99.90;;;;;;4957502;28;20054;-50
2021/11/02 15:41:34;;;;;;;2.15;1.25;;;9.50;99.90;;;;;;4957310;28;20037;-50
2021/11/02 15:44:06;;;;;;;2.92;1.30;;;9.40;99.90;;;;;;4956094;28;20031;-49
2021/11/02 15:46:42;;;;;;;1.33;1.20;;;9.40;99.90;;;;;;4957446;28;20110;-52
2021/11/02 15:49:09;;;;;;;1.23;1.00;;;9.30;99.90;;;;;;4958408;28;20457;-51
2021/11/02 15:51:37;;;;;;;2.45;1.48;;;9.20;99.90;;;;;;4958670;28;20038;-50
2021/11/02 15:54:10;;;;;;;2.95;1.13;;;9.10;99.90;;;;;;4958572;28;20557;-52
2021/11/02 15:56:36;;;;;;;1.02;0.93;;;9.10;99.90;;;;;;4958943;28;20456;-50
2021/11/02 15:59:07;;;;;;;1.73;1.20;;;9.00;99.90;;;;;;4958494;28;20015;-50
2021/11/02 16:01:37;;;;;;;4.53;1.90;;;8.90;99.90;;;;;;4957210;28;20027;-50
2021/11/02 16:04:08;;;;;;;5.82;1.80;;;8.80;99.90;;;;;;4959239;28;20494;-52
2021/11/02 16:06:35;;;;;;;1.52;1.35;;;8.80;99.90;;;;;;4957914;28;20514;-52
2021/11/02 16:09:06;;;;;;;3.97;2.50;;;8.70;99.90;;;;;;4958957;28;20039;-51
2021/11/02 16:11:32;;;;;;;4.05;2.05;;;8.60;99.90;;;;;;4958405;28;20038;-50
2021/11/02 16:14:05;;;;;;;3.42;2.03;;;8.50;99.90;;;;;;4959842;28;20023;-50
2021/11/02 16:16:31;;;;;;;2.90;2.63;;;8.40;99.90;;;;;;4958521;28;20395;-52
2021/11/02 16:18:57;;;;;;;4.05;2.40;;;8.40;99.90;;;;;;4959214;28;20055;-49
2021/11/02 16:21:26;;;;;;;4.82;2.60;;;8.30;99.90;;;;;;4959272;28;20028;-52
2021/11/02 16:23:53;;;;;;;4.00;2.45;;;8.20;99.90;;;;;;4958950;28;20503;-49
2021/11/02 16:26:28;;;;;;;4.15;2.50;;;8.20;99.90;;;;;;4958982;28;20027;-51
2021/11/02 16:28:58;;;;;;;3.95;2.10;;;8.10;99.90;;;;;;4958134;28;20487;-48
2021/11/02 16:31:29;;;;;;;5.38;2.33;;;8.00;99.90;;;;;;4957646;28;20114;-49
2021/11/02 16:33:55;;;;;;;4.93;2.30;;;8.00;99.90;;;;;;4957735;28;20023;-49
2021/11/02 16:36:37;;;;;;;3.80;2.40;;;7.90;99.90;;;;;;4956357;28;20027;-49
2021/11/02 16:39:13;;;;;;;3.28;2.00;;;7.90;99.90;;;;;;4958005;28;20030;-49
2021/11/02 16:41:47;;;;;;;2.45;1.73;;;7.80;99.90;;;;;;4957568;28;20522;-50
2021/11/02 16:44:26;;;;;;;3.63;2.10;;;7.70;99.90;;;;;;4957982;28;20050;-51
2021/11/02 16:47:14;;;;;;;6.45;2.92;;;7.70;99.90;;;;;;4958409;28;20057;-52
2021/11/02 16:49:40;;;;;;;3.75;2.22;;;7.60;99.90;;;;;;4958259;28;20031;-48
2021/11/02 16:52:11;;;;;;;3.53;2.38;;;7.60;99.90;;;;;;4957849;28;20023;-49
2021/11/02 16:54:38;;;;;;;3.63;2.00;;;7.50;99.90;;;;;;4957798;28;20058;-49
2021/11/02 16:57:17;;;;;;;5.15;2.28;;;7.40;99.90;;;;;;4956521;28;21033;-49
2021/11/02 17:00:06;;;;;;;5.03;2.40;;;7.40;99.90;;;;;;4956704;28;20034;-49
2021/11/02 17:02:42;;;;;;;3.97;2.10;;;7.30;99.90;;;;;;4958082;28;20035;-51
2021/11/02 17:05:37;;;;;;;2.70;2.45;;;7.30;99.90;;;;;;4958739;28;20195;-52
2021/11/02 17:08:03;;;;;;;3.17;2.60;;;7.20;99.90;;;;;;4953656;28;20030;-49
2021/11/02 17:10:50;;;;;;;8.23;3.55;;;7.20;99.90;;;;;;4958375;28;20376;-51
2021/11/02 17:13:20;;;;;;;3.10;2.25;;;7.10;99.90;;;;;;4956958;28;20045;-50
2021/11/02 17:56:46;;;;;;;8.93;4.95;;;6.50;99.90;;;;;;4950876;28;20895;-48
2021/11/02 17:59:12;;;;;;;9.30;4.38;;;6.40;99.90;;;;;;4954544;28;20023;-48
2021/11/02 18:01:40;;;;;;;6.72;4.38;;;6.40;99.90;;;;;;4956855;28;20415;-52
2021/11/02 18:04:06;;;;;;;8.55;4.95;;;6.40;99.90;;;;;;4956248;28;20708;-49
2021/11/02 18:06:32;;;;;;;8.73;5.47;;;6.30;99.90;;;;;;4957067;28;20034;-50
2021/11/02 18:08:58;;;;;;;8.35;4.72;;;6.30;99.90;;;;;;4956601;28;20023;-48
2021/11/02 18:11:24;;;;;;;7.72;5.35;;;6.20;99.90;;;;;;4957044;28;20026;-49
2021/11/02 18:13:50;;;;;;;9.55;5.15;;;6.20;99.90;;;;;;4956937;28;20691;-50
2021/11/02 18:16:17;;;;;;;9.70;5.10;;;6.10;99.90;;;;;;4956197;28;20038;-51
2021/11/02 18:18:44;;;;;;;8.07;4.80;;;6.10;99.90;;;;;;4956788;28;20066;-51
2021/11/02 18:21:15;;;;;;;6.20;4.45;;;6.10;99.90;;;;;;4957281;28;20058;-49
2021/11/02 18:23:44;;;;;;;8.32;5.10;;;6.00;99.90;;;;;;4956647;28;20559;-48
2021/11/02 18:26:11;;;;;;;8.45;5.72;;;6.00;99.90;;;;;;4958191;28;20016;-49
2021/11/02 18:28:37;;;;;;;6.65;5.88;;;6.00;99.90;;;;;;4957203;28;20019;-51
2021/11/02 18:31:03;;;;;;;9.18;6.45;;;6.00;99.90;;;;;;4956294;28;20407;-50
2021/11/02 18:33:29;;;;;;;10.68;6.90;;;5.90;99.90;;;;;;4957559;28;20023;-54
2021/11/02 18:35:56;;;;;;;7.03;6.25;;;5.90;99.90;;;;;;4956928;28;20022;-49
2021/11/02 18:38:24;;;;;;;7.90;6.25;;;5.80;99.90;;;;;;4957930;28;20019;-49
2021/11/02 18:40:50;;;;;;;10.35;7.30;;;5.80;99.90;;;;;;4957805;28;20027;-52
2021/11/02 18:43:17;;;;;;;8.90;6.18;;;5.90;99.90;;;;;;4959483;28;20082;-49
2021/11/02 18:45:42;;;;;;;7.90;6.10;;;5.90;99.90;;;;;;4958214;28;20019;-49
2021/11/02 18:48:08;;;;;;;10.50;7.30;;;5.90;99.90;;;;;;4958754;28;20019;-51
2021/11/02 18:50:34;;;;;;;12.85;7.57;;;5.80;99.90;;;;;;4958617;28;20033;-49
2021/11/02 18:53:00;;;;;;;9.32;6.40;;;5.80;99.90;;;;;;4959874;28;20399;-50
2021/11/02 18:55:27;;;;;;;10.40;6.55;;;5.90;99.90;;;;;;4960100;28;20019;-50
2021/11/02 18:57:54;;;;;;;9.38;5.75;;;5.90;99.90;;;;;;4960112;28;20053;-49
2021/11/02 19:00:21;;;;;;;8.13;5.55;;;5.90;99.90;;;;;;4958450;28;20027;-52
2021/11/02 19:02:46;;;;;;;11.05;5.80;;;5.80;99.90;;;;;;4959349;28;20031;-50
2021/11/02 19:05:12;;;;;;;9.25;5.93;;;5.80;99.90;;;;;;4959827;28;20025;-49